Du har inga inställningar för hoppväder.nu

Hoppväder.nu

Senast uppdaterat 05:41

UTC-tid

2020-01-29 kl. 04:41


Sol och måne

Solen går upp 8:42 och går ner 15:46 (beräknade cirkatider)
Nästa fullmåne blir om 11 dagar (2020-02-09)

METAR

ESNZ (Åre/Östersunds)
(21 minuter sedan)
ESNZ 290420Z AUTO 05008KT 010V070 2500 -SN VV015 M04/M05 Q0992=















TAF

ESNZ (Åre/Östersunds)
(41 minuter sedan)
ESNZ 290400Z 2905/2912 05012KT 5000 -SN BKN015 TEMPO 2905/2912 1200 SN VV004=





Kodnycklar till TAF och METAR






LHP

(Östersund är område C2a i Sydvästra delen)

Prognos är inte uppdaterad




Spotting

Hur fungerar spotthjälpen och Vindkartan?

Markvind är ca 0 m/s.



Vindkartan

Senast uppdaterad 05:41




All data kommer från LFV.se